Time;durP1;ratioP1;P1;durP2;ratioP2;P2;SDS_P1;SDS_P2;PMS_P1;PMS_P2;Temp;Humidity;BMP_temperature;BMP_pressure;BME280_temperature;BME280_humidity;BME280_pressure;Samples;Min_cycle;Max_cycle;Signal;HPM_P1;HPM_P2
2022/11/06 00:07:40;;;;;;;26.30;12.90;;;;;;;6.68;86.09;98945.67;420420;1291;108484;-41
2022/11/06 00:17:44;;;;;;;34.90;16.40;;;;;;;6.60;86.01;98945.18;420524;1290;99253;-41
2022/11/06 00:27:47;;;;;;;35.30;18.10;;;;;;;6.40;85.96;98955.84;420685;1298;107779;-41
2022/11/06 00:37:51;;;;;;;33.90;15.80;;;;;;;6.19;85.83;98957.80;420624;1298;99228;-41
2022/11/06 00:57:58;;;;;;;25.30;13.80;;;;;;;5.99;85.81;98960.17;420707;1298;107527;-41
2022/11/06 01:08:01;;;;;;;38.60;16.80;;;;;;;5.94;85.79;98969.55;420541;1290;99220;-41
2022/11/06 01:18:04;;;;;;;32.20;13.20;;;;;;;5.96;85.87;98976.63;420775;1291;110549;-41
2022/11/06 01:28:22;;;;;;;31.80;15.90;;;;;;;5.91;85.95;98972.27;420700;1298;99227;-41
2022/11/06 01:38:26;;;;;;;28.50;15.40;;;;;;;5.69;85.72;98970.34;420756;1298;111821;-42
2022/11/06 01:48:30;;;;;;;25.10;12.50;;;;;;;5.50;85.68;98970.63;420663;1298;108645;-39
2022/11/06 01:58:35;;;;;;;25.20;12.50;;;;;;;5.30;85.61;98976.37;420647;1298;362198;-40
2022/11/06 02:19:05;;;;;;;20.30;12.50;;;;;;;4.96;85.47;98987.11;420978;1283;99945;-39
2022/11/06 02:29:23;;;;;;;19.10;11.20;;;;;;;4.87;85.59;98991.52;420990;1283;112168;-42
2022/11/06 02:39:29;;;;;;;25.50;13.30;;;;;;;4.55;85.25;98990.64;420978;1298;110557;-40
2022/11/06 02:49:39;;;;;;;22.50;12.00;;;;;;;4.25;85.33;98992.83;420903;1292;99259;-40
2022/11/06 02:59:47;;;;;;;23.20;9.60;;;;;;;3.96;85.13;98993.77;420722;1291;107342;-41
2022/11/06 03:09:50;;;;;;;17.30;9.60;;;;;;;3.74;85.17;98995.50;420689;1298;97968;-41
2022/11/06 03:20:00;;;;;;;16.10;9.30;;;;;;;3.64;85.20;99004.29;421338;1291;112448;-40
2022/11/06 03:30:07;;;;;;;18.30;9.70;;;;;;;3.48;85.25;99015.23;420858;1298;107939;-41
2022/11/06 03:40:19;;;;;;;16.20;10.20;;;;;;;3.43;85.25;99013.34;420616;1298;99229;-40
2022/11/06 03:50:25;;;;;;;13.20;8.10;;;;;;;3.23;85.14;99017.75;420507;1298;109159;-41
2022/11/06 04:00:29;;;;;;;18.60;8.90;;;;;;;3.07;85.15;99028.04;420674;1298;99566;-41
2022/11/06 04:21:21;;;;;;;25.80;12.20;;;;;;;2.85;85.15;99018.14;420548;1291;108345;-40
2022/11/06 04:31:24;;;;;;;27.10;12.80;;;;;;;2.65;85.51;99017.04;420763;1294;99781;-41
2022/11/06 04:51:37;;;;;;;20.80;8.60;;;;;;;2.44;85.33;99031.60;420761;1298;108605;-41
2022/11/06 05:01:40;;;;;;;13.00;7.90;;;;;;;2.36;85.45;99026.14;421022;1295;98853;-41
2022/11/06 05:11:44;;;;;;;23.70;9.30;;;;;;;2.36;85.52;99024.14;420737;1291;109671;-41
2022/11/06 05:32:10;;;;;;;38.50;22.20;;;;;;;2.24;85.51;99034.83;420629;1294;111924;-40
2022/11/06 05:42:13;;;;;;;30.90;18.70;;;;;;;2.19;85.67;99033.65;420678;1298;107128;-40
2022/11/06 05:52:17;;;;;;;28.00;18.40;;;;;;;2.17;85.71;99032.33;420749;1289;99255;-40
2022/11/06 06:02:20;;;;;;;29.50;18.50;;;;;;;2.20;85.63;99048.04;420987;1291;107150;-41
2022/11/06 06:12:25;;;;;;;26.40;18.40;;;;;;;2.24;85.74;99055.71;420303;1291;98869;-40
2022/11/06 06:22:28;;;;;;;37.10;20.80;;;;;;;2.38;85.86;99059.73;420957;1298;110624;-40
2022/11/06 06:32:32;;;;;;;33.30;21.10;;;;;;;2.47;85.78;99067.66;421151;1291;107194;-40
2022/11/06 06:42:35;;;;;;;26.20;16.50;;;;;;;2.71;85.92;99076.98;420849;1296;99252;-40
2022/11/06 06:52:39;;;;;;;41.90;23.90;;;;;;;3.05;85.98;99072.67;420720;1298;108416;-40
2022/11/06 07:02:43;;;;;;;61.10;27.70;;;;;;;3.30;85.75;99075.86;420839;1298;99263;-41
2022/11/06 07:12:46;;;;;;;45.00;25.80;;;;;;;3.46;85.73;99078.34;420658;1289;110906;-43
2022/11/06 07:22:49;;;;;;;32.80;19.60;;;;;;;3.63;85.82;99080.65;420897;1291;106339;-40
2022/11/06 07:32:53;;;;;;;30.70;18.20;;;;;;;4.57;86.55;99081.95;420528;1292;99223;-41
2022/11/06 07:43:02;;;;;;;38.40;22.30;;;;;;;5.84;86.70;99089.61;421089;1292;106689;-40
2022/11/06 07:53:05;;;;;;;32.30;19.60;;;;;;;6.38;85.98;99093.22;421121;1298;99240;-40
2022/11/06 08:03:09;;;;;;;41.70;25.10;;;;;;;7.02;86.29;99094.73;420974;1281;99235;-41
2022/11/06 08:13:15;;;;;;;55.80;31.90;;;;;;;7.99;86.35;99089.85;420788;1298;108559;-41
2022/11/06 08:23:18;;;;;;;62.70;35.30;;;;;;;7.77;84.91;99086.34;420930;1294;99252;-40
2022/11/06 08:33:23;;;;;;;56.50;32.50;;;;;;;7.06;84.38;99089.09;420969;1291;114137;-40
2022/11/06 08:43:26;;;;;;;36.30;23.40;;;;;;;6.89;84.44;99086.20;420740;1298;107099;-41
2022/11/06 08:53:30;;;;;;;42.80;23.10;;;;;;;6.97;84.44;99080.84;420892;1298;99176;-41
2022/11/06 09:03:34;;;;;;;28.40;17.50;;;;;;;7.27;84.68;99073.11;420923;1294;107561;-41
2022/11/06 09:13:38;;;;;;;29.00;17.50;;;;;;;7.55;84.48;99072.58;420729;1298;99850;-41
2022/11/06 09:33:44;;;;;;;46.70;28.50;;;;;;;7.95;84.73;99069.69;420779;1290;107267;-39
2022/11/06 09:43:55;;;;;;;47.00;23.10;;;;;;;8.50;84.74;99062.38;420924;1294;99218;-39
2022/11/06 09:54:09;;;;;;;36.40;17.60;;;;;;;9.02;84.60;99059.65;420887;1298;107368;-40
2022/11/06 10:04:23;;;;;;;25.10;12.70;;;;;;;9.65;84.56;99052.92;420834;1291;98048;-40
2022/11/06 10:14:30;;;;;;;22.70;11.30;;;;;;;10.12;84.11;99050.75;420662;1298;111417;-41
2022/11/06 10:24:39;;;;;;;19.70;9.80;;;;;;;10.39;83.32;99042.80;420507;1284;107969;-40
2022/11/06 10:34:45;;;;;;;19.10;11.10;;;;;;;10.44;82.51;99035.29;420881;1289;98847;-42
2022/11/06 10:44:52;;;;;;;15.30;7.70;;;;;;;10.60;82.48;99031.38;421139;1298;108744;-40
2022/11/06 10:55:01;;;;;;;15.90;8.00;;;;;;;10.82;81.74;99021.89;421662;1283;98324;-40
2022/11/06 11:05:09;;;;;;;14.80;6.40;;;;;;;10.78;81.10;99009.15;421076;1298;111380;-40
2022/11/06 11:15:17;;;;;;;18.60;4.80;;;;;;;11.06;80.81;98992.52;420855;1298;109130;-40
2022/11/06 11:35:30;;;;;;;8.80;3.20;;;;;;;10.91;79.18;98970.38;420675;1298;108134;-41
2022/11/06 11:45:34;;;;;;;6.50;3.00;;;;;;;10.93;78.53;98956.88;420892;1298;99253;-41
2022/11/06 11:55:38;;;;;;;11.20;3.40;;;;;;;10.96;78.02;98957.45;420617;1298;112789;-41
2022/11/06 12:05:42;;;;;;;7.50;3.70;;;;;;;10.87;77.65;98952.52;420680;1298;108591;-41
2022/11/06 12:15:50;;;;;;;15.00;4.20;;;;;;;10.52;77.33;98949.13;420669;1291;99368;-41
2022/11/06 12:25:56;;;;;;;12.20;3.00;;;;;;;10.48;77.06;98943.31;420913;1298;108332;-41
2022/11/06 12:36:02;;;;;;;8.10;3.70;;;;;;;10.53;76.95;98927.02;420928;1291;100001;-41
2022/11/06 12:46:17;;;;;;;6.10;2.30;;;;;;;10.59;76.56;98913.77;421094;1298;112250;-41
2022/11/06 12:56:23;;;;;;;6.60;3.60;;;;;;;10.62;76.06;98904.50;420792;1292;107664;-41
2022/11/06 13:06:28;;;;;;;6.10;2.60;;;;;;;10.40;75.91;98897.72;420653;1291;99112;-40
2022/11/06 13:16:31;;;;;;;6.40;2.80;;;;;;;10.43;75.85;98886.39;420583;1299;107654;-42
2022/11/06 13:26:38;;;;;;;7.40;3.30;;;;;;;10.49;75.19;98873.52;420800;1291;99186;-40
2022/11/06 13:36:44;;;;;;;8.60;2.80;;;;;;;10.50;74.96;98863.13;420824;1297;111616;-40
2022/11/06 13:46:48;;;;;;;8.10;3.00;;;;;;;10.49;74.58;98851.22;421092;1298;107848;-40
2022/11/06 13:57:05;;;;;;;9.80;4.40;;;;;;;10.40;74.07;98842.27;420777;1298;289663;-40
2022/11/06 14:07:11;;;;;;;16.40;7.30;;;;;;;10.29;73.86;98839.46;420659;1298;108200;-40
2022/11/06 14:27:59;;;;;;;15.50;6.80;;;;;;;10.06;73.44;98837.16;420863;1298;110229;-42
2022/11/06 14:48:25;;;;;;;17.10;7.90;;;;;;;9.64;73.75;98856.25;420834;1291;99555;-41
2022/11/06 14:58:28;;;;;;;8.90;4.50;;;;;;;9.32;74.11;98855.84;420973;1297;108246;-41
2022/11/06 15:09:05;;;;;;;13.60;6.00;;;;;;;9.02;74.43;98850.11;420609;1301;99184;-41
2022/11/06 15:19:11;;;;;;;14.20;7.00;;;;;;;8.75;75.05;98851.46;418470;1305;111946;-41
2022/11/06 15:29:25;;;;;;;21.70;8.80;;;;;;;8.53;75.43;98855.16;418772;1304;108849;-41
2022/11/06 15:49:35;;;;;;;27.10;16.60;;;;;;;8.05;76.31;98841.30;420222;1298;106781;-41
2022/11/06 15:59:38;;;;;;;65.60;34.00;;;;;;;7.78;76.47;98843.61;420540;1290;99229;-42
2022/11/06 16:09:43;;;;;;;30.10;18.60;;;;;;;7.59;76.86;98837.94;420771;1298;110437;-41
2022/11/06 16:19:48;;;;;;;34.90;16.80;;;;;;;7.40;77.27;98829.59;420623;1297;107456;-41
2022/11/06 16:29:51;;;;;;;31.50;17.50;;;;;;;7.25;77.61;98827.56;420313;1299;99374;-42
2022/11/06 16:39:55;;;;;;;47.60;25.90;;;;;;;7.16;77.82;98827.34;420519;1298;107519;-42
2022/11/06 16:50:00;;;;;;;46.10;25.40;;;;;;;6.93;78.13;98821.10;420834;1297;99995;-39
2022/11/06 17:00:03;;;;;;;52.20;26.70;;;;;;;6.73;78.58;98816.83;420803;1299;111329;-40
2022/11/06 17:10:39;;;;;;;41.60;22.90;;;;;;;6.58;78.83;98815.95;421027;1298;108410;-39
2022/11/06 17:20:45;;;;;;;32.40;18.90;;;;;;;6.51;79.20;98818.56;420992;1298;99230;-40
2022/11/06 17:30:49;;;;;;;34.40;18.20;;;;;;;6.52;79.60;98821.91;421048;1292;108266;-39
2022/11/06 17:40:52;;;;;;;40.70;19.90;;;;;;;6.49;79.78;98825.80;421131;1295;99447;-41
2022/11/06 18:01:18;;;;;;;62.00;35.70;;;;;;;6.20;79.87;98815.48;420517;1296;107193;-41
2022/11/06 18:11:22;;;;;;;46.90;30.70;;;;;;;5.91;80.13;98790.56;420743;1294;99383;-41
2022/11/06 18:21:26;;;;;;;49.70;27.70;;;;;;;5.74;80.30;98788.04;420934;1301;107711;-42
2022/11/06 18:31:29;;;;;;;54.20;28.90;;;;;;;5.63;80.72;98783.79;420879;1298;98404;-41
2022/11/06 18:41:33;;;;;;;55.80;30.80;;;;;;;5.51;80.82;98769.85;420495;1299;113043;-40
2022/11/06 18:51:36;;;;;;;53.30;29.10;;;;;;;5.55;81.24;98769.70;420901;1292;108379;-40
2022/11/06 19:01:40;;;;;;;55.30;29.00;;;;;;;5.44;81.05;98759.95;420666;1298;99367;-40
2022/11/06 19:11:46;;;;;;;37.10;19.70;;;;;;;5.33;81.33;98744.61;420527;1299;108460;-43
2022/11/06 19:21:50;;;;;;;35.20;20.80;;;;;;;5.31;81.53;98743.51;420790;1297;98830;-41
2022/11/06 19:31:54;;;;;;;34.10;18.60;;;;;;;5.32;81.73;98732.23;420772;1292;112042;-41
2022/11/06 19:41:59;;;;;;;27.90;14.30;;;;;;;5.39;82.11;98732.65;420796;1298;108010;-41
2022/11/06 19:52:03;;;;;;;21.10;13.00;;;;;;;5.40;82.10;98723.54;420652;1299;99224;-41
2022/11/06 20:02:26;;;;;;;26.40;13.20;;;;;;;5.39;82.32;98722.77;420792;1297;108060;-40
2022/11/06 20:12:30;;;;;;;26.50;14.70;;;;;;;5.42;82.42;98712.29;420848;1289;99227;-40
2022/11/06 20:22:33;;;;;;;30.60;17.00;;;;;;;5.45;82.49;98716.98;420779;1300;115221;-39
2022/11/06 20:32:37;;;;;;;29.10;17.70;;;;;;;5.44;82.57;98716.60;420426;1298;107886;-41
2022/11/06 20:42:40;;;;;;;32.90;19.30;;;;;;;5.44;82.78;98713.25;420826;1297;99276;-40
2022/11/06 20:52:43;;;;;;;36.20;18.70;;;;;;;5.44;82.84;98705.38;420406;1304;107654;-40
2022/11/06 21:02:47;;;;;;;34.50;18.60;;;;;;;5.44;82.81;98694.77;420605;1298;99392;-41
2022/11/06 21:12:51;;;;;;;26.90;16.20;;;;;;;5.42;82.94;98686.59;420530;1291;111286;-39
2022/11/06 21:22:55;;;;;;;30.40;18.10;;;;;;;5.46;83.07;98682.11;420708;1298;108200;-39
2022/11/06 21:32:59;;;;;;;33.80;18.30;;;;;;;5.45;83.16;98677.30;420497;1298;99371;-40
2022/11/06 21:43:02;;;;;;;31.20;17.20;;;;;;;5.43;83.35;98677.13;420686;1298;107891;-39
2022/11/06 22:03:27;;;;;;;30.80;18.60;;;;;;;5.32;83.15;98671.84;420752;1291;110699;-40
2022/11/06 22:13:31;;;;;;;40.80;21.40;;;;;;;5.32;83.51;98659.25;420525;1298;107300;-40
2022/11/06 22:23:34;;;;;;;39.00;21.20;;;;;;;5.50;83.75;98647.38;420639;1292;99185;-40
2022/11/06 22:33:38;;;;;;;34.20;17.00;;;;;;;5.73;84.21;98645.72;420926;1298;107482;-41
2022/11/06 22:43:43;;;;;;;35.90;21.60;;;;;;;5.94;84.34;98642.72;420599;1290;99287;-40
2022/11/06 22:53:49;;;;;;;50.10;25.80;;;;;;;6.02;84.52;98630.23;420654;1298;110752;-40
2022/11/06 23:24:03;;;;;;;41.30;23.00;;;;;;;6.05;85.03;98606.23;420616;1298;106965;-39
2022/11/06 23:34:06;;;;;;;49.30;26.30;;;;;;;6.06;85.04;98605.15;420880;1292;99222;-40
2022/11/06 23:45:47;;;;;;;49.20;26.70;;;;;;;6.08;85.09;98605.67;420719;1298;112043;-39
2022/11/06 23:54:33;;;;;;;53.20;27.60;;;;;;;6.15;85.33;98604.43;420928;1291;106142;-39
